Terminal Aerodrome Forecast
Issued by NWS

Home | Current Version | Previous Version | Text Only | Print | Product List | Glossary On
Versions: 1 2 3 4 5 6 7 8 9 10 11 12 13 14 15 16 17 18
579
FTUS42 KFFC 112338
TAFFTY
TAF
KFTY 112338Z 1200/1224 32004KT P6SM FEW100
     FM120200 02004KT P6SM BKN100
     FM121000 06005KT P6SM BKN030
     FM121500 07005KT P6SM BKN025
     FM121800 30010KT P6SM BKN030
     FM122100 27010G18KT P6SM SCT030=

USA.gov is the U.S. government's official web portal to all federal, state and local government web resources and services.